createdAt,value
2022-10-19T00:00:19.891Z,2.40
2022-10-19T00:02:46.498Z,2.42
2022-10-19T00:05:13.253Z,2.45
2022-10-19T00:07:39.914Z,2.55
2022-10-19T00:10:07.072Z,2.58
2022-10-19T00:12:35.099Z,2.33
2022-10-19T00:15:01.989Z,2.20
2022-10-19T00:17:28.700Z,2.53
2022-10-19T00:19:55.614Z,2.45
2022-10-19T00:22:22.506Z,2.55
2022-10-19T00:24:49.303Z,2.45
2022-10-19T00:27:16.738Z,2.47
2022-10-19T00:29:44.676Z,2.65
2022-10-19T00:32:12.004Z,2.20
2022-10-19T00:34:38.622Z,2.35
2022-10-19T00:37:05.261Z,2.30
2022-10-19T00:39:32.341Z,2.47
2022-10-19T00:41:59.148Z,2.55
2022-10-19T00:44:59.718Z,2.45
2022-10-19T00:47:26.916Z,2.53
2022-10-19T00:49:54.567Z,2.33
2022-10-19T00:52:23.828Z,2.63
2022-10-19T00:54:52.641Z,2.58
2022-10-19T00:59:47.022Z,2.50
2022-10-19T01:02:15.081Z,2.50
2022-10-19T01:04:47.536Z,2.60
2022-10-19T01:07:14.850Z,2.30
2022-10-19T01:09:41.552Z,2.50
2022-10-19T01:12:22.666Z,2.65
2022-10-19T01:15:04.059Z,2.60
2022-10-19T01:17:44.544Z,2.53
2022-10-19T01:20:35.898Z,2.30
2022-10-19T01:23:31.230Z,2.70
2022-10-19T01:26:08.927Z,2.70
2022-10-19T01:28:49.146Z,2.65
2022-10-19T01:31:27.096Z,2.80
2022-10-19T01:34:00.590Z,2.65
2022-10-19T01:36:39.283Z,2.95
2022-10-19T01:39:10.615Z,2.78
2022-10-19T01:41:45.763Z,2.80
2022-10-19T01:44:17.635Z,2.58
2022-10-19T01:46:51.615Z,2.50
2022-10-19T01:49:22.422Z,2.90
2022-10-19T01:51:52.047Z,2.70
2022-10-19T01:54:21.357Z,2.55
2022-10-19T01:56:50.229Z,2.55
2022-10-19T02:01:49.124Z,3.03
2022-10-19T02:04:18.696Z,3.15
2022-10-19T02:06:46.036Z,2.92
2022-10-19T02:09:18.103Z,2.85
2022-10-19T02:11:49.616Z,3.00
2022-10-19T02:14:22.599Z,3.10
2022-10-19T02:16:54.882Z,2.92
2022-10-19T02:21:54.308Z,3.20
2022-10-19T02:24:20.944Z,3.05
2022-10-19T02:26:47.708Z,2.72
2022-10-19T02:29:15.952Z,3.63
2022-10-19T02:31:43.511Z,2.50
2022-10-19T02:34:12.174Z,3.20
2022-10-19T02:36:39.012Z,3.05
2022-10-19T02:39:07.026Z,2.90
2022-10-19T02:41:41.882Z,2.87
2022-10-19T02:44:15.647Z,2.90
2022-10-19T02:46:46.059Z,3.08
2022-10-19T02:49:14.610Z,2.85
2022-10-19T02:51:57.635Z,2.85
2022-10-19T02:54:24.483Z,3.00
2022-10-19T02:56:51.199Z,2.70
2022-10-19T02:59:18.500Z,3.45
2022-10-19T03:01:45.106Z,2.97
2022-10-19T03:04:11.736Z,3.22
2022-10-19T03:06:39.737Z,3.60
2022-10-19T03:09:06.552Z,3.23
2022-10-19T03:11:34.078Z,3.22
2022-10-19T03:14:00.638Z,2.80
2022-10-19T03:16:27.234Z,3.38
2022-10-19T03:18:54.803Z,2.83
2022-10-19T03:21:21.476Z,3.25
2022-10-19T03:23:49.736Z,3.13
2022-10-19T03:26:17.677Z,3.53
2022-10-19T03:28:44.320Z,3.25
2022-10-19T03:31:11.296Z,3.30
2022-10-19T03:33:37.956Z,3.38
2022-10-19T03:36:20.600Z,3.58
2022-10-19T03:38:49.544Z,3.40
2022-10-19T03:43:42.673Z,3.20
2022-10-19T03:46:10.711Z,3.42
2022-10-19T03:48:37.409Z,3.17
2022-10-19T03:51:06.445Z,3.15
2022-10-19T03:53:33.437Z,3.58
2022-10-19T03:56:06.551Z,3.55
2022-10-19T03:58:35.956Z,3.85
2022-10-19T04:01:07.587Z,3.35
2022-10-19T04:06:03.187Z,3.40
2022-10-19T04:08:30.150Z,3.60
2022-10-19T04:11:00.322Z,3.60
2022-10-19T04:13:28.805Z,3.58
2022-10-19T04:15:55.530Z,3.50
2022-10-19T04:18:22.172Z,3.80
2022-10-19T04:20:49.019Z,3.50
2022-10-19T04:25:42.313Z,3.30
2022-10-19T04:28:09.097Z,3.53
2022-10-19T04:30:37.094Z,3.33
2022-10-19T04:33:03.932Z,3.70
2022-10-19T04:35:30.581Z,3.17
2022-10-19T04:37:58.828Z,3.50
2022-10-19T04:40:25.813Z,3.10
2022-10-19T04:42:52.705Z,3.65
2022-10-19T04:45:19.432Z,3.38
2022-10-19T04:47:47.504Z,3.15
2022-10-19T04:50:14.295Z,3.40
2022-10-19T04:52:40.935Z,3.45
2022-10-19T04:55:08.284Z,3.05
2022-10-19T04:57:35.187Z,3.25
2022-10-19T05:00:02.587Z,3.65
2022-10-19T05:02:29.159Z,3.38
2022-10-19T05:04:57.135Z,3.35
2022-10-19T05:07:23.760Z,3.57
2022-10-19T05:09:50.383Z,3.80
2022-10-19T05:12:17.014Z,3.50
2022-10-19T05:14:43.711Z,3.58
2022-10-19T05:17:10.276Z,3.40
2022-10-19T05:19:36.911Z,3.38
2022-10-19T05:22:05.061Z,4.13
2022-10-19T05:24:32.603Z,4.07
2022-10-19T05:26:59.208Z,3.97
2022-10-19T05:29:26.043Z,3.70
2022-10-19T05:31:52.632Z,3.70
2022-10-19T05:34:19.549Z,4.05
2022-10-19T05:36:46.145Z,3.95
2022-10-19T05:39:16.308Z,4.07
2022-10-19T05:41:43.879Z,4.43
2022-10-19T05:44:14.222Z,3.92
2022-10-19T05:46:40.843Z,4.68
2022-10-19T05:49:07.497Z,4.47
2022-10-19T05:51:34.156Z,4.30
2022-10-19T05:54:00.718Z,4.70
2022-10-19T05:56:30.729Z,4.25
2022-10-19T05:58:58.785Z,5.00
2022-10-19T06:01:26.052Z,4.67
2022-10-19T06:03:54.423Z,5.15
2022-10-19T06:06:22.034Z,5.32
2022-10-19T06:08:49.348Z,5.68
2022-10-19T06:11:17.848Z,5.85
2022-10-19T06:13:47.605Z,5.47
2022-10-19T06:16:16.013Z,5.30
2022-10-19T06:18:43.672Z,5.00
2022-10-19T06:21:12.032Z,5.30
2022-10-19T06:23:39.212Z,5.90
2022-10-19T06:26:08.145Z,5.53
2022-10-19T06:33:48.538Z,4.53
2022-10-19T06:36:19.044Z,4.85
2022-10-19T06:38:46.062Z,5.10
2022-10-19T06:41:12.808Z,4.50
2022-10-19T06:43:40.283Z,5.00
2022-10-19T06:46:10.204Z,5.10
2022-10-19T06:48:36.893Z,4.85
2022-10-19T06:51:06.358Z,5.70
2022-10-19T06:53:34.415Z,5.80
2022-10-19T06:56:02.713Z,5.55
2022-10-19T06:58:29.440Z,5.60
2022-10-19T07:00:57.244Z,6.35
2022-10-19T07:03:25.785Z,5.32
2022-10-19T07:05:53.428Z,6.22
2022-10-19T07:08:21.733Z,6.57
2022-10-19T07:10:55.349Z,6.50
2022-10-19T07:13:26.982Z,5.70
2022-10-19T07:15:59.791Z,5.63
2022-10-19T07:18:34.558Z,5.45
2022-10-19T07:21:03.263Z,6.22
2022-10-19T07:23:32.322Z,5.55
2022-10-19T07:26:03.980Z,5.93
2022-10-19T07:28:31.032Z,5.30
2022-10-19T07:30:57.764Z,5.90
2022-10-19T07:33:24.582Z,5.97
2022-10-19T07:35:59.400Z,5.55
2022-10-19T07:38:25.977Z,5.85
2022-10-19T07:40:59.362Z,6.00
2022-10-19T07:43:26.142Z,5.57
2022-10-19T07:45:58.651Z,5.18
2022-10-19T07:48:25.393Z,5.72
2022-10-19T07:50:53.411Z,5.93
2022-10-19T07:53:20.026Z,5.60
2022-10-19T07:55:46.671Z,5.10
2022-10-19T07:58:13.301Z,5.40
2022-10-19T08:03:43.736Z,4.50
2022-10-19T08:06:01.808Z,4.20
2022-10-19T08:08:28.668Z,3.75
2022-10-19T08:10:55.769Z,4.00
2022-10-19T08:13:22.416Z,3.63
2022-10-19T08:15:49.050Z,3.30
2022-10-19T08:18:16.908Z,2.78
2022-10-19T08:20:44.394Z,2.80
2022-10-19T08:23:12.356Z,2.90
2022-10-19T08:25:39.127Z,2.87
2022-10-19T08:28:05.686Z,2.67
2022-10-19T08:30:34.949Z,3.10
2022-10-19T08:33:01.774Z,2.60
2022-10-19T08:35:30.670Z,2.92
2022-10-19T08:40:30.148Z,2.88
2022-10-19T08:43:02.330Z,2.78
2022-10-19T08:48:24.994Z,3.05
2022-10-19T08:50:53.021Z,2.63
2022-10-19T08:53:27.262Z,3.17
2022-10-19T08:56:05.849Z,2.95
2022-10-19T08:58:42.812Z,3.08
2022-10-19T09:01:16.630Z,3.15
2022-10-19T09:03:55.389Z,2.83
2022-10-19T09:06:29.261Z,2.97
2022-10-19T09:08:57.926Z,2.75
2022-10-19T09:11:29.852Z,2.80
2022-10-19T09:14:06.391Z,2.92
2022-10-19T09:16:35.027Z,3.20
2022-10-19T09:19:02.537Z,2.85
2022-10-19T09:21:46.072Z,3.00
2022-10-19T09:24:27.660Z,2.60
2022-10-19T09:26:58.159Z,3.10
2022-10-19T09:29:30.171Z,2.83
2022-10-19T09:32:00.386Z,2.95
2022-10-19T09:34:33.475Z,3.00
2022-10-19T09:37:00.278Z,2.90
2022-10-19T09:39:29.906Z,2.78
2022-10-19T09:42:00.055Z,2.80
2022-10-19T09:44:27.527Z,2.80
2022-10-19T09:47:03.695Z,2.80
2022-10-19T09:49:40.480Z,2.60
2022-10-19T09:52:23.551Z,2.70
2022-10-19T09:54:59.968Z,2.72
2022-10-19T09:57:28.039Z,2.55
2022-10-19T09:59:55.256Z,2.05
2022-10-19T10:02:28.668Z,2.40
2022-10-19T10:05:02.487Z,2.80
2022-10-19T10:07:35.519Z,2.70
2022-10-19T10:10:02.829Z,2.17
2022-10-19T10:12:30.912Z,2.85
2022-10-19T10:14:57.997Z,2.25
2022-10-19T10:17:30.479Z,1.95
2022-10-19T10:20:18.004Z,2.05
2022-10-19T10:22:52.794Z,1.90
2022-10-19T10:25:19.562Z,1.90
2022-10-19T10:27:57.327Z,2.10
2022-10-19T10:30:24.260Z,2.30
2022-10-19T10:32:54.388Z,2.03
2022-10-19T10:35:24.986Z,1.90
2022-10-19T10:37:52.980Z,2.00
2022-10-19T10:40:23.796Z,1.90
2022-10-19T10:42:52.812Z,1.80
2022-10-19T10:45:26.140Z,1.92
2022-10-19T10:47:53.864Z,1.95
2022-10-19T10:50:23.155Z,1.65
2022-10-19T10:52:58.441Z,1.58
2022-10-19T10:55:26.730Z,1.33
2022-10-19T10:58:02.354Z,1.38
2022-10-19T11:00:30.860Z,1.40
2022-10-19T11:03:06.572Z,1.83
2022-10-19T11:05:36.427Z,1.30
2022-10-19T11:08:08.016Z,1.30
2022-10-19T11:10:41.260Z,1.30
2022-10-19T11:13:15.958Z,1.48
2022-10-19T11:15:52.927Z,1.77
2022-10-19T11:18:23.723Z,1.42
2022-10-19T11:21:00.766Z,1.17
2022-10-19T11:23:40.351Z,1.30
2022-10-19T11:26:17.662Z,1.42
2022-10-19T11:28:55.908Z,1.40
2022-10-19T11:31:35.475Z,1.27
2022-10-19T11:34:08.864Z,1.70
2022-10-19T11:36:46.244Z,1.73
2022-10-19T11:39:26.524Z,1.48
2022-10-19T11:42:00.815Z,1.40
2022-10-19T11:44:39.038Z,1.40
2022-10-19T11:47:24.755Z,1.20
2022-10-19T11:49:59.764Z,1.58
2022-10-19T11:52:32.764Z,1.23
2022-10-19T11:55:14.757Z,1.30
2022-10-19T11:57:50.432Z,1.40
2022-10-19T12:00:40.985Z,1.50
2022-10-19T12:03:29.633Z,1.58
2022-10-19T12:06:09.234Z,1.25
2022-10-19T12:08:55.301Z,1.20
2022-10-19T12:11:45.787Z,1.77
2022-10-19T12:14:16.614Z,1.13
2022-10-19T12:16:47.361Z,1.40
2022-10-19T12:19:21.243Z,1.42
2022-10-19T12:21:49.991Z,1.38
2022-10-19T12:26:47.643Z,1.10
2022-10-19T12:31:43.420Z,1.20
2022-10-19T12:34:22.163Z,1.20
2022-10-19T12:39:24.602Z,1.05
2022-10-19T12:42:00.737Z,1.60
2022-10-19T12:44:44.547Z,1.30
2022-10-19T12:47:15.553Z,1.13
2022-10-19T12:49:48.913Z,1.20
2022-10-19T12:52:34.082Z,1.10
2022-10-19T12:55:24.680Z,1.33
2022-10-19T12:57:59.209Z,1.50
2022-10-19T13:00:29.413Z,1.27
2022-10-19T13:03:00.645Z,1.10
2022-10-19T13:05:30.668Z,0.75
2022-10-19T13:07:58.221Z,1.05
2022-10-19T13:10:27.642Z,1.02
2022-10-19T13:12:55.334Z,1.10
2022-10-19T13:15:50.092Z,1.20
2022-10-19T13:19:07.101Z,1.05
2022-10-19T13:22:10.361Z,1.00
2022-10-19T13:24:37.596Z,1.42
2022-10-19T13:27:27.307Z,1.25
2022-10-19T13:29:54.572Z,1.30
2022-10-19T13:32:44.856Z,1.70
2022-10-19T13:35:38.926Z,1.50
2022-10-19T13:38:27.583Z,1.00
2022-10-19T13:41:05.049Z,1.23
2022-10-19T13:43:34.933Z,1.20
2022-10-19T13:46:07.776Z,1.17
2022-10-19T13:48:59.128Z,1.40
2022-10-19T13:51:32.688Z,1.35
2022-10-19T13:54:12.620Z,1.45
2022-10-19T13:56:52.088Z,1.10
2022-10-19T13:59:40.111Z,1.30
2022-10-19T14:02:46.214Z,1.20
2022-10-19T14:05:27.342Z,1.20
2022-10-19T14:08:06.911Z,1.20
2022-10-19T14:10:49.536Z,1.40
2022-10-19T14:13:23.676Z,1.13
2022-10-19T14:15:52.823Z,1.20
2022-10-19T14:18:25.371Z,1.35
2022-10-19T14:20:58.148Z,1.30
2022-10-19T14:23:27.131Z,1.23
2022-10-19T14:25:58.745Z,1.40
2022-10-19T14:28:26.007Z,1.40
2022-10-19T14:30:57.884Z,1.30
2022-10-19T14:33:25.951Z,1.20
2022-10-19T14:35:54.036Z,1.35
2022-10-19T14:38:25.839Z,1.23
2022-10-19T14:40:52.627Z,1.08
2022-10-19T14:43:22.963Z,1.33
2022-10-19T14:46:11.603Z,1.00
2022-10-19T14:48:40.340Z,1.10
2022-10-19T14:53:40.281Z,1.20
2022-10-19T14:56:10.381Z,1.23
2022-10-19T14:58:44.192Z,1.23
2022-10-19T15:01:12.089Z,1.25
2022-10-19T15:03:43.725Z,1.70
2022-10-19T15:06:18.971Z,1.55
2022-10-19T15:08:49.021Z,1.40
2022-10-19T15:11:26.115Z,1.58
2022-10-19T15:14:05.265Z,2.03
2022-10-19T15:16:42.172Z,1.70
2022-10-19T15:19:17.319Z,1.60
2022-10-19T15:21:44.747Z,1.63
2022-10-19T15:24:24.294Z,1.40
2022-10-19T15:27:06.432Z,1.40
2022-10-19T15:29:36.990Z,1.80
2022-10-19T15:32:20.281Z,1.45
2022-10-19T15:34:47.368Z,1.58
2022-10-19T15:37:20.277Z,1.75
2022-10-19T15:39:47.470Z,1.75
2022-10-19T15:42:33.846Z,2.35
2022-10-19T15:45:02.538Z,2.13
2022-10-19T15:47:30.342Z,2.30
2022-10-19T15:49:59.486Z,2.38
2022-10-19T15:52:27.768Z,2.70
2022-10-19T15:54:56.636Z,2.88
2022-10-19T15:57:27.362Z,2.90
2022-10-19T15:59:58.694Z,2.88
2022-10-19T16:02:26.979Z,2.90
2022-10-19T16:04:54.176Z,3.00
2022-10-19T16:07:25.882Z,3.25
2022-10-19T16:09:52.939Z,3.55
2022-10-19T16:12:19.541Z,3.47
2022-10-19T16:14:50.148Z,3.15
2022-10-19T16:17:19.853Z,3.28
2022-10-19T16:19:49.429Z,3.38
2022-10-19T16:22:16.577Z,3.45
2022-10-19T16:24:43.677Z,3.00
2022-10-19T16:27:15.000Z,3.42
2022-10-19T16:29:42.328Z,3.25
2022-10-19T16:32:09.422Z,3.25
2022-10-19T16:34:36.303Z,3.00
2022-10-19T16:37:06.798Z,3.17
2022-10-19T16:39:34.274Z,3.17
2022-10-19T16:42:01.010Z,3.22
2022-10-19T16:44:27.623Z,2.83
2022-10-19T16:46:56.751Z,3.05
2022-10-19T16:49:23.319Z,2.88
2022-10-19T16:51:53.216Z,2.70
2022-10-19T16:54:26.471Z,2.50
2022-10-19T16:56:53.396Z,3.10
2022-10-19T16:59:20.077Z,2.70
2022-10-19T17:01:48.471Z,2.72
2022-10-19T17:04:17.354Z,2.70
2022-10-19T17:11:58.506Z,3.17
2022-10-19T17:14:25.316Z,2.77
2022-10-19T17:16:51.975Z,3.08
2022-10-19T17:19:18.672Z,3.33
2022-10-19T17:21:45.287Z,2.83
2022-10-19T17:24:20.163Z,3.15
2022-10-19T17:26:49.628Z,3.35
2022-10-19T17:29:18.622Z,3.40
2022-10-19T17:31:46.233Z,3.33
2022-10-19T17:34:12.996Z,3.17
2022-10-19T17:36:42.165Z,3.00
2022-10-19T17:39:12.426Z,2.90
2022-10-19T17:41:39.046Z,3.50
2022-10-19T17:44:05.726Z,2.80
2022-10-19T17:46:35.411Z,3.00
2022-10-19T17:49:02.951Z,3.10
2022-10-19T17:51:35.246Z,3.20
2022-10-19T17:54:03.750Z,3.17
2022-10-19T17:56:30.636Z,3.08
2022-10-19T17:58:58.267Z,3.40
2022-10-19T18:01:25.608Z,3.50
2022-10-19T18:03:53.578Z,3.30
2022-10-19T18:06:21.592Z,3.07
2022-10-19T18:08:51.205Z,3.27
2022-10-19T18:11:20.187Z,3.17
2022-10-19T18:13:47.699Z,3.50
2022-10-19T18:16:17.364Z,3.22
2022-10-19T18:18:46.137Z,3.33
2022-10-19T18:23:43.620Z,3.03
2022-10-19T18:26:12.879Z,3.78
2022-10-19T18:28:39.873Z,3.35
2022-10-19T18:31:10.876Z,3.03
2022-10-19T18:33:38.258Z,3.47
2022-10-19T18:36:09.097Z,3.42
2022-10-19T18:38:37.692Z,3.20
2022-10-19T18:41:05.757Z,3.65
2022-10-19T18:43:32.919Z,3.23
2022-10-19T18:46:00.600Z,3.30
2022-10-19T18:48:29.312Z,2.95
2022-10-19T18:50:56.329Z,3.15
2022-10-19T18:53:24.006Z,3.20
2022-10-19T18:55:58.269Z,3.40
2022-10-19T18:58:25.877Z,3.00
2022-10-19T19:01:03.489Z,3.47
2022-10-19T19:03:30.969Z,3.25
2022-10-19T19:06:01.573Z,3.30
2022-10-19T19:08:28.703Z,3.22
2022-10-19T19:10:55.683Z,3.40
2022-10-19T19:13:26.155Z,3.50
2022-10-19T19:15:59.992Z,3.72
2022-10-19T19:18:26.947Z,4.05
2022-10-19T19:20:53.638Z,3.65
2022-10-19T19:23:20.517Z,3.42
2022-10-19T19:25:48.538Z,3.00
2022-10-19T19:28:15.196Z,3.30
2022-10-19T19:30:44.856Z,3.35
2022-10-19T19:33:12.015Z,3.05
2022-10-19T19:35:42.516Z,3.20
2022-10-19T19:38:09.650Z,3.25
2022-10-19T19:40:44.821Z,3.30
2022-10-19T19:43:13.915Z,3.30
2022-10-19T19:45:43.240Z,3.40
2022-10-19T19:48:11.338Z,3.33
2022-10-19T19:50:38.407Z,3.60
2022-10-19T19:53:05.180Z,3.58
2022-10-19T19:55:38.116Z,3.45
2022-10-19T19:58:05.744Z,3.85
2022-10-19T20:00:32.656Z,3.50
2022-10-19T20:03:00.426Z,3.88
2022-10-19T20:05:28.502Z,3.50
2022-10-19T20:07:55.433Z,3.95
2022-10-19T20:10:22.388Z,3.60
2022-10-19T20:12:50.044Z,3.97
2022-10-19T20:15:18.061Z,3.92
2022-10-19T20:17:45.317Z,3.67
2022-10-19T20:20:13.576Z,4.22
2022-10-19T20:22:46.372Z,3.50
2022-10-19T20:25:12.985Z,3.60
2022-10-19T20:27:39.699Z,3.40
2022-10-19T20:30:07.862Z,3.58
2022-10-19T20:32:34.723Z,3.60
2022-10-19T20:35:01.795Z,3.70
2022-10-19T20:37:37.572Z,3.88
2022-10-19T20:40:08.893Z,3.90
2022-10-19T20:42:37.378Z,3.83
2022-10-19T20:45:05.615Z,3.78
2022-10-19T20:47:32.478Z,3.47
2022-10-19T20:49:59.887Z,3.95
2022-10-19T20:52:26.517Z,4.00
2022-10-19T20:54:53.134Z,3.80
2022-10-19T20:57:21.197Z,4.10
2022-10-19T20:59:49.259Z,3.60
2022-10-19T21:02:16.377Z,3.50
2022-10-19T21:04:42.994Z,3.70
2022-10-19T21:07:09.669Z,3.50
2022-10-19T21:09:36.326Z,3.70
2022-10-19T21:12:03.172Z,3.45
2022-10-19T21:14:31.726Z,3.65
2022-10-19T21:16:58.874Z,3.65
2022-10-19T21:19:27.269Z,3.60
2022-10-19T21:21:56.162Z,3.33
2022-10-19T21:29:19.404Z,3.33
2022-10-19T21:31:49.521Z,3.50
2022-10-19T21:34:18.427Z,3.28
2022-10-19T21:39:11.547Z,3.38
2022-10-19T21:41:38.357Z,3.33
2022-10-19T21:44:05.274Z,3.63
2022-10-19T21:46:31.951Z,3.53
2022-10-19T21:48:59.928Z,3.70
2022-10-19T21:51:34.671Z,3.60
2022-10-19T21:54:01.608Z,3.72
2022-10-19T21:56:28.587Z,3.40
2022-10-19T21:58:55.656Z,3.60
2022-10-19T22:01:25.320Z,3.65
2022-10-19T22:03:56.172Z,3.90
2022-10-19T22:06:25.316Z,3.55
2022-10-19T22:08:52.527Z,3.97
2022-10-19T22:11:19.391Z,4.10
2022-10-19T22:13:46.187Z,3.83
2022-10-19T22:16:15.624Z,4.07
2022-10-19T22:18:43.171Z,3.80
2022-10-19T22:21:12.635Z,3.78
2022-10-19T22:23:40.835Z,4.10
2022-10-19T22:26:14.555Z,3.33
2022-10-19T22:28:41.636Z,3.65
2022-10-19T22:31:08.699Z,3.80
2022-10-19T22:33:36.220Z,4.03
2022-10-19T22:36:06.305Z,3.63
2022-10-19T22:38:34.287Z,3.78
2022-10-19T22:41:57.449Z,3.75
2022-10-19T22:44:25.415Z,3.53
2022-10-19T22:46:52.135Z,3.60
2022-10-19T22:49:18.823Z,3.72
2022-10-19T22:51:45.460Z,4.18
2022-10-19T22:54:12.479Z,4.07
2022-10-19T22:56:39.702Z,4.07
2022-10-19T22:59:06.938Z,4.10
2022-10-19T23:01:35.084Z,4.10
2022-10-19T23:04:02.000Z,4.40
2022-10-19T23:06:28.612Z,4.20
2022-10-19T23:08:55.401Z,4.30
2022-10-19T23:11:22.716Z,4.45
2022-10-19T23:13:49.477Z,4.40
2022-10-19T23:16:16.237Z,4.70
2022-10-19T23:18:44.390Z,4.95
2022-10-19T23:21:12.965Z,4.28
2022-10-19T23:23:40.034Z,4.63
2022-10-19T23:26:09.735Z,4.57
2022-10-19T23:28:38.749Z,4.40
2022-10-19T23:31:08.057Z,4.35
2022-10-19T23:33:35.234Z,4.38
2022-10-19T23:36:05.504Z,4.68
2022-10-19T23:38:32.326Z,4.90
2022-10-19T23:40:58.968Z,4.45
2022-10-19T23:43:25.615Z,4.80
2022-10-19T23:45:52.232Z,5.03
2022-10-19T23:48:18.912Z,4.65
2022-10-19T23:50:45.641Z,4.80
2022-10-19T23:53:13.608Z,5.00
2022-10-19T23:55:40.225Z,5.13
2022-10-19T23:58:07.440Z,5.00
